Time;durP1;ratioP1;P1;durP2;ratioP2;P2;SDS_P1;SDS_P2;PMS_P1;PMS_P2;Temp;Humidity;BMP_temperature;BMP_pressure;BME280_temperature;BME280_humidity;BME280_pressure;Samples;Min_cycle;Max_cycle;Signal;HPM_P1;HPM_P2
2022/05/28 00:02:23;;;;;;;15.38;2.30;;;10.10;99.90;;;;;;4979010;28;20622;-84
2022/05/28 00:04:48;;;;;;;7.55;1.83;;;10.00;99.90;;;;;;5031366;28;20160;-84
2022/05/28 00:07:14;;;;;;;8.90;1.48;;;10.00;99.90;;;;;;5004078;28;20049;-84
2022/05/28 00:09:40;;;;;;;13.65;2.03;;;10.00;99.90;;;;;;5045306;28;20128;-85
2022/05/28 00:12:06;;;;;;;13.02;2.45;;;9.90;99.90;;;;;;5000176;28;20376;-86
2022/05/28 00:14:32;;;;;;;9.63;1.60;;;9.90;99.90;;;;;;5029725;28;20497;-83
2022/05/28 00:16:58;;;;;;;8.20;1.38;;;9.80;99.90;;;;;;5012449;28;20122;-84
2022/05/28 00:19:23;;;;;;;16.00;2.47;;;9.70;99.90;;;;;;5006843;28;20516;-84
2022/05/28 00:21:49;;;;;;;9.18;1.40;;;9.70;99.90;;;;;;5015610;28;20057;-85
2022/05/28 00:24:15;;;;;;;8.63;1.50;;;9.60;99.90;;;;;;5016851;28;20050;-83
2022/05/28 00:26:43;;;;;;;9.07;1.58;;;9.60;99.90;;;;;;5018313;28;20045;-84
2022/05/28 00:29:09;;;;;;;14.35;1.50;;;9.50;99.90;;;;;;5007751;28;20115;-84
2022/05/28 00:31:34;;;;;;;10.77;1.42;;;9.50;99.90;;;;;;5013769;28;20645;-84
2022/05/28 00:34:00;;;;;;;5.50;1.25;;;9.40;99.90;;;;;;5031234;28;20041;-84
2022/05/28 00:36:26;;;;;;;7.28;1.10;;;9.40;99.90;;;;;;5015881;28;20544;-84
2022/05/28 00:38:51;;;;;;;13.88;1.40;;;9.40;99.90;;;;;;5047478;28;20042;-84
2022/05/28 00:41:17;;;;;;;9.85;1.42;;;9.40;99.90;;;;;;5014728;28;20069;-84
2022/05/28 00:43:45;;;;;;;8.70;1.58;;;9.30;99.90;;;;;;5026731;28;20053;-83
2022/05/28 00:46:20;;;;;;;7.70;1.33;;;9.20;99.90;;;;;;5031495;28;20076;-85
2022/05/28 00:48:49;;;;;;;8.20;1.25;;;9.30;99.90;;;;;;5053043;28;20069;-84
2022/05/28 00:51:20;;;;;;;7.45;1.20;;;9.30;99.90;;;;;;5030314;28;20087;-85
2022/05/28 00:53:46;;;;;;;8.95;1.23;;;9.30;99.90;;;;;;5037771;28;20435;-85
2022/05/28 00:56:11;;;;;;;8.80;1.45;;;9.20;99.90;;;;;;5034864;28;20046;-85
2022/05/28 00:58:37;;;;;;;9.88;1.70;;;9.10;99.90;;;;;;5014781;28;20060;-84
2022/05/28 01:01:06;;;;;;;8.13;1.73;;;9.10;99.90;;;;;;5012910;28;20104;-85
2022/05/28 01:03:44;;;;;;;7.22;1.33;;;9.20;99.90;;;;;;5012289;28;20052;-84
2022/05/28 01:06:14;;;;;;;8.63;1.33;;;9.30;99.90;;;;;;5019224;28;20073;-84
2022/05/28 01:08:51;;;;;;;13.77;1.48;;;9.30;99.90;;;;;;5032395;28;20099;-84
2022/05/28 01:11:39;;;;;;;7.05;1.17;;;9.50;99.90;;;;;;5019793;28;20046;-84
2022/05/28 01:14:20;;;;;;;8.63;1.25;;;9.40;99.90;;;;;;5022874;28;20120;-84
2022/05/28 01:17:13;;;;;;;11.95;1.63;;;9.50;99.90;;;;;;5041089;28;20108;-84
2022/05/28 01:19:39;;;;;;;7.55;1.45;;;9.50;99.90;;;;;;5027309;28;20057;-83
2022/05/28 01:22:18;;;;;;;7.55;1.77;;;9.50;99.90;;;;;;5033992;28;20080;-84
2022/05/28 01:25:08;;;;;;;6.53;1.80;;;9.40;99.90;;;;;;5030387;28;20045;-86
2022/05/28 01:27:46;;;;;;;9.05;1.50;;;9.30;99.90;;;;;;5042848;28;20501;-84
2022/05/28 01:30:15;;;;;;;10.13;1.20;;;9.20;99.90;;;;;;5031121;28;20045;-84
2022/05/28 01:32:44;;;;;;;7.63;1.20;;;9.20;99.90;;;;;;5012891;28;20126;-83
2022/05/28 01:35:13;;;;;;;5.65;1.33;;;9.20;99.90;;;;;;5015377;28;20046;-82
2022/05/28 01:37:39;;;;;;;8.77;1.92;;;9.20;99.90;;;;;;5029672;28;20124;-83
2022/05/28 01:40:08;;;;;;;18.00;2.00;;;9.20;99.90;;;;;;5023064;28;20037;-84
2022/05/28 01:42:36;;;;;;;7.75;1.38;;;9.10;99.90;;;;;;5014969;28;20082;-83
2022/05/28 01:45:04;;;;;;;9.45;1.75;;;9.10;99.90;;;;;;5008411;28;20497;-83
2022/05/28 01:47:32;;;;;;;6.40;1.95;;;9.10;99.90;;;;;;5013095;28;20094;-84
2022/05/28 01:50:00;;;;;;;10.95;1.98;;;9.10;99.90;;;;;;5029358;28;20049;-84
2022/05/28 01:52:27;;;;;;;7.22;1.40;;;9.10;99.90;;;;;;5002834;28;20049;-85
2022/05/28 01:54:54;;;;;;;9.60;1.92;;;9.10;99.90;;;;;;5025902;28;20041;-85
2022/05/28 01:57:19;;;;;;;14.18;1.80;;;9.00;99.90;;;;;;4999204;28;20057;-85
2022/05/28 01:59:45;;;;;;;9.82;1.65;;;9.00;99.90;;;;;;5037282;28;20045;-84
2022/05/28 02:02:13;;;;;;;10.85;1.42;;;9.10;99.90;;;;;;5012768;28;20074;-84
2022/05/28 02:04:42;;;;;;;9.13;1.55;;;9.00;99.90;;;;;;5061452;28;20608;-84
2022/05/28 02:07:08;;;;;;;12.85;1.48;;;9.00;99.90;;;;;;5028279;28;20057;-84
2022/05/28 02:09:37;;;;;;;9.40;1.45;;;9.20;99.90;;;;;;5013266;28;20054;-84
2022/05/28 02:12:15;;;;;;;9.13;1.70;;;9.20;99.90;;;;;;5029000;28;20741;-85
2022/05/28 02:15:22;;;;;;;8.05;1.80;;;9.10;99.90;;;;;;5024435;28;20060;-84
2022/05/28 02:18:01;;;;;;;9.23;1.85;;;9.00;99.90;;;;;;4993064;28;20483;-84
2022/05/28 02:20:54;;;;;;;11.10;1.73;;;8.90;99.90;;;;;;5030648;28;20046;-83
2022/05/28 02:23:43;;;;;;;16.70;2.20;;;8.90;99.90;;;;;;5010450;28;20087;-85
2022/05/28 02:26:12;;;;;;;10.77;1.30;;;8.80;99.90;;;;;;5028954;28;20037;-83
2022/05/28 02:28:39;;;;;;;13.30;1.52;;;8.70;99.90;;;;;;5029514;28;20442;-84
2022/05/28 02:31:16;;;;;;;11.40;1.70;;;8.80;99.90;;;;;;5025023;28;20099;-84
2022/05/28 02:33:43;;;;;;;8.30;1.40;;;8.80;99.90;;;;;;5042645;28;20719;-84
2022/05/28 02:36:10;;;;;;;8.40;1.60;;;8.80;99.90;;;;;;5013690;28;20045;-84
2022/05/28 02:38:36;;;;;;;12.20;1.35;;;8.80;99.90;;;;;;4998380;28;20052;-83
2022/05/28 02:41:02;;;;;;;7.38;1.50;;;8.80;99.90;;;;;;4994446;28;20041;-84
2022/05/28 02:43:29;;;;;;;12.60;1.77;;;8.90;99.90;;;;;;5041343;28;20060;-84
2022/05/28 02:45:55;;;;;;;7.88;1.30;;;9.00;99.90;;;;;;5010858;28;20041;-84
2022/05/28 02:48:20;;;;;;;6.95;1.58;;;9.00;99.90;;;;;;4996595;28;20099;-83
2022/05/28 02:50:46;;;;;;;10.98;2.53;;;9.00;99.90;;;;;;5026554;28;20136;-84
2022/05/28 02:53:13;;;;;;;9.93;1.52;;;9.00;99.90;;;;;;5003161;28;20053;-84
2022/05/28 02:55:40;;;;;;;13.93;2.25;;;9.00;99.90;;;;;;5030878;28;20048;-84
2022/05/28 02:58:06;;;;;;;11.90;2.90;;;9.10;99.90;;;;;;5044944;28;20137;-84
2022/05/28 03:00:31;;;;;;;9.57;1.92;;;9.20;99.90;;;;;;5027885;28;20120;-84
2022/05/28 03:02:57;;;;;;;12.77;2.63;;;9.30;99.90;;;;;;4997907;28;20132;-84
2022/05/28 03:05:24;;;;;;;10.55;2.08;;;9.40;99.90;;;;;;5028635;28;20045;-84
2022/05/28 03:07:50;;;;;;;14.82;1.98;;;9.30;99.90;;;;;;5028110;28;20053;-83
2022/05/28 03:10:16;;;;;;;10.80;1.60;;;9.20;99.90;;;;;;5028960;28;20088;-84
2022/05/28 03:12:43;;;;;;;15.43;1.63;;;9.10;99.90;;;;;;5038826;28;20490;-83
2022/05/28 03:15:10;;;;;;;14.27;2.58;;;9.10;99.90;;;;;;5044715;28;20490;-84
2022/05/28 03:17:37;;;;;;;14.10;2.13;;;9.20;99.90;;;;;;5029307;28;20081;-84
2022/05/28 03:20:03;;;;;;;8.90;1.70;;;9.20;99.90;;;;;;5028724;28;20474;-84
2022/05/28 03:22:30;;;;;;;9.85;1.80;;;9.40;99.90;;;;;;5001300;28;20045;-85
2022/05/28 03:24:56;;;;;;;18.27;1.80;;;9.50;99.90;;;;;;5008157;28;20046;-85
2022/05/28 03:27:22;;;;;;;15.25;1.90;;;9.30;99.90;;;;;;5009336;28;20042;-84
2022/05/28 03:29:47;;;;;;;10.23;1.80;;;9.40;99.90;;;;;;5010760;28;20052;-84
2022/05/28 03:32:13;;;;;;;9.95;1.90;;;9.50;99.90;;;;;;4998518;28;20036;-83
2022/05/28 03:34:39;;;;;;;10.43;1.67;;;9.50;99.90;;;;;;4993113;28;20183;-83
2022/05/28 03:37:05;;;;;;;16.27;2.25;;;9.50;99.90;;;;;;5003518;28;20395;-84
2022/05/28 03:39:30;;;;;;;7.72;1.85;;;9.60;99.90;;;;;;4992843;28;20049;-88
2022/05/28 03:41:56;;;;;;;9.75;1.98;;;9.60;99.90;;;;;;4969426;28;20052;-84
2022/05/28 03:44:22;;;;;;;9.60;1.80;;;9.60;99.90;;;;;;5028182;28;20038;-84
2022/05/28 03:46:48;;;;;;;11.52;2.20;;;9.60;99.90;;;;;;5025383;28;20063;-84
2022/05/28 03:49:26;;;;;;;14.65;2.00;;;9.60;99.90;;;;;;5025283;28;20050;-84
2022/05/28 03:51:51;;;;;;;14.80;2.28;;;9.50;99.90;;;;;;5014730;28;20071;-83
2022/05/28 03:54:17;;;;;;;14.23;2.38;;;9.50;99.90;;;;;;5009802;28;20164;-83
2022/05/28 03:56:45;;;;;;;11.50;2.20;;;9.60;99.90;;;;;;5011456;28;20191;-84
2022/05/28 03:59:11;;;;;;;24.77;2.50;;;9.70;99.90;;;;;;5045757;28;20066;-84
2022/05/28 04:01:38;;;;;;;10.00;2.25;;;9.70;99.90;;;;;;5031562;28;20056;-84
2022/05/28 04:04:04;;;;;;;11.90;2.17;;;9.70;99.90;;;;;;5048928;28;20445;-84
2022/05/28 04:06:30;;;;;;;11.45;2.20;;;9.70;99.90;;;;;;5029633;28;20423;-84
2022/05/28 04:08:56;;;;;;;11.88;2.20;;;9.60;99.90;;;;;;5028067;28;20488;-84
2022/05/28 04:11:22;;;;;;;11.90;2.13;;;9.60;99.90;;;;;;5019696;28;20044;-83
2022/05/28 04:13:48;;;;;;;16.38;2.35;;;9.70;99.90;;;;;;5014705;28;20103;-84
2022/05/28 04:16:14;;;;;;;8.93;1.52;;;9.90;99.90;;;;;;5006946;28;20379;-84
2022/05/28 04:18:40;;;;;;;13.18;2.22;;;10.10;99.90;;;;;;5014976;28;20049;-84
2022/05/28 04:21:06;;;;;;;16.00;2.45;;;10.00;99.90;;;;;;5018720;28;20052;-85
2022/05/28 04:23:33;;;;;;;15.95;2.78;;;10.00;99.90;;;;;;5009319;28;20124;-84
2022/05/28 04:25:59;;;;;;;15.18;2.05;;;9.90;99.90;;;;;;5033100;28;20124;-84
2022/05/28 04:28:24;;;;;;;16.58;2.97;;;9.80;99.90;;;;;;5032511;28;20571;-84
2022/05/28 04:30:50;;;;;;;15.18;2.33;;;9.80;99.90;;;;;;5045817;28;20045;-84
2022/05/28 04:33:16;;;;;;;15.98;2.95;;;9.80;99.90;;;;;;5011343;28;20487;-84
2022/05/28 04:35:41;;;;;;;17.33;2.50;;;9.60;99.90;;;;;;5019237;28;20049;-84
2022/05/28 04:38:07;;;;;;;16.65;3.42;;;9.70;99.90;;;;;;4993729;28;20062;-84
2022/05/28 04:40:33;;;;;;;15.10;2.38;;;9.70;99.90;;;;;;5010503;28;20049;-84
2022/05/28 04:42:58;;;;;;;15.45;1.92;;;9.70;99.90;;;;;;5030860;28;20619;-84
2022/05/28 04:45:24;;;;;;;10.73;2.22;;;9.80;99.90;;;;;;5015964;28;20044;-85
2022/05/28 04:47:50;;;;;;;11.07;2.45;;;9.90;99.90;;;;;;5013265;28;20108;-83
2022/05/28 04:50:18;;;;;;;14.18;2.30;;;9.90;99.90;;;;;;5014754;28;20081;-84
2022/05/28 04:52:44;;;;;;;12.45;2.60;;;10.00;99.90;;;;;;4984733;28;20128;-84
2022/05/28 04:55:11;;;;;;;15.05;2.22;;;10.20;99.90;;;;;;4994113;28;20133;-84
2022/05/28 04:57:37;;;;;;;16.50;2.17;;;10.20;99.90;;;;;;4999550;28;20057;-84
2022/05/28 05:00:13;;;;;;;15.18;2.30;;;10.20;99.90;;;;;;5013957;28;20054;-84
2022/05/28 05:02:39;;;;;;;12.57;2.10;;;10.40;99.90;;;;;;5044997;28;20068;-85
2022/05/28 05:05:07;;;;;;;14.60;2.35;;;10.60;99.90;;;;;;5014563;28;20037;-84
2022/05/28 05:07:33;;;;;;;10.43;1.83;;;10.60;99.90;;;;;;5030464;28;20045;-84
2022/05/28 05:09:58;;;;;;;8.40;2.05;;;10.70;99.90;;;;;;4997147;28;20132;-84
2022/05/28 05:12:24;;;;;;;17.48;2.38;;;10.90;99.90;;;;;;5027711;28;20046;-84
2022/05/28 05:14:50;;;;;;;14.18;2.92;;;10.90;99.90;;;;;;4997435;28;20045;-84
2022/05/28 05:17:15;;;;;;;18.02;2.30;;;10.90;99.90;;;;;;5015376;28;20106;-84
2022/05/28 05:19:41;;;;;;;17.02;2.10;;;10.90;99.90;;;;;;5011904;28;20049;-84
2022/05/28 05:22:07;;;;;;;12.93;2.15;;;11.00;99.90;;;;;;5031601;28;20045;-84
2022/05/28 05:24:33;;;;;;;11.18;2.30;;;11.00;99.90;;;;;;5009891;28;20113;-84
2022/05/28 05:27:00;;;;;;;15.77;3.10;;;11.10;99.90;;;;;;5007352;28;20077;-84
2022/05/28 05:29:26;;;;;;;13.05;2.05;;;11.30;99.90;;;;;;5000545;28;20076;-85
2022/05/28 05:31:52;;;;;;;11.18;2.42;;;11.30;99.90;;;;;;5015359;28;20124;-84
2022/05/28 05:34:18;;;;;;;10.82;2.20;;;11.30;99.90;;;;;;5002203;28;20140;-84
2022/05/28 05:36:43;;;;;;;18.02;2.78;;;11.40;99.90;;;;;;5034647;28;20045;-85
2022/05/28 05:39:09;;;;;;;17.25;2.58;;;11.50;99.90;;;;;;5038963;28;20037;-84
2022/05/28 05:41:42;;;;;;;14.90;2.72;;;11.50;99.90;;;;;;5029160;28;20549;-85
2022/05/28 05:44:09;;;;;;;11.98;2.03;;;11.50;99.90;;;;;;5009965;28;20776;-84
2022/05/28 05:46:36;;;;;;;16.42;3.47;;;11.60;99.90;;;;;;5021848;28;20108;-86
2022/05/28 05:49:01;;;;;;;12.75;2.45;;;11.50;99.90;;;;;;5018910;28;20069;-87
2022/05/28 05:51:28;;;;;;;12.98;2.47;;;11.40;99.90;;;;;;5003190;28;20136;-84
2022/05/28 05:53:54;;;;;;;13.98;2.15;;;11.30;99.90;;;;;;5020438;28;20052;-86
2022/05/28 05:56:19;;;;;;;19.85;3.60;;;11.30;99.90;;;;;;5008118;28;20042;-86
2022/05/28 05:58:45;;;;;;;15.32;3.60;;;11.50;99.90;;;;;;5015180;28;20424;-85
2022/05/28 06:01:11;;;;;;;16.75;2.78;;;11.80;99.90;;;;;;5011787;28;20119;-86
2022/05/28 06:03:44;;;;;;;16.48;3.35;;;12.00;99.90;;;;;;5047023;28;20042;-85
2022/05/28 06:06:12;;;;;;;12.45;3.15;;;12.20;99.90;;;;;;5020790;28;20100;-86
2022/05/28 06:08:38;;;;;;;12.05;2.42;;;12.20;99.90;;;;;;4998387;28;20477;-86
2022/05/28 06:11:06;;;;;;;8.95;2.05;;;12.20;99.90;;;;;;4996417;28;20046;-86
2022/05/28 06:13:32;;;;;;;11.93;2.10;;;12.10;99.90;;;;;;5017514;28;20544;-86
2022/05/28 06:15:58;;;;;;;10.40;2.10;;;12.00;99.90;;;;;;5005068;28;20046;-86
2022/05/28 06:18:24;;;;;;;12.93;2.17;;;12.00;99.90;;;;;;5031234;28;20045;-86
2022/05/28 06:20:50;;;;;;;9.85;1.83;;;12.00;99.90;;;;;;5047423;28;20053;-86
2022/05/28 06:23:17;;;;;;;9.85;1.98;;;11.90;99.90;;;;;;4991744;28;20132;-86
2022/05/28 06:25:45;;;;;;;10.93;2.50;;;11.90;99.90;;;;;;4998564;28;20055;-85
2022/05/28 06:28:13;;;;;;;11.95;1.90;;;12.00;99.90;;;;;;5031632;28;20045;-86
2022/05/28 06:30:44;;;;;;;9.68;2.45;;;12.00;99.90;;;;;;5029990;28;20056;-86
2022/05/28 06:33:11;;;;;;;9.80;1.95;;;12.20;99.90;;;;;;5007109;28;20053;-87
2022/05/28 06:35:40;;;;;;;12.02;2.08;;;12.60;99.90;;;;;;5007185;28;20044;-86
2022/05/28 06:38:08;;;;;;;14.32;2.20;;;13.10;99.90;;;;;;4987583;28;20053;-86
2022/05/28 06:40:35;;;;;;;9.07;1.80;;;13.40;99.90;;;;;;5006616;28;20045;-86
2022/05/28 06:43:01;;;;;;;10.18;1.98;;;13.30;99.90;;;;;;5034377;28;20095;-86
2022/05/28 06:45:27;;;;;;;12.98;2.65;;;13.10;99.90;;;;;;5006798;28;20033;-86
2022/05/28 06:47:53;;;;;;;16.45;2.10;;;13.10;99.90;;;;;;5005750;28;20057;-87
2022/05/28 06:53:08;;;;;;;13.65;2.60;;;12.90;99.90;;;;;;5008602;28;20770;-84
2022/05/28 06:55:40;;;;;;;12.48;3.35;;;12.70;99.90;;;;;;5001079;28;20072;-85
2022/05/28 06:58:06;;;;;;;11.82;2.58;;;12.40;99.90;;;;;;5027636;28;20820;-85
2022/05/28 07:00:35;;;;;;;10.75;2.70;;;12.30;99.90;;;;;;5000118;28;20372;-84
2022/05/28 07:03:02;;;;;;;10.68;2.33;;;12.20;99.90;;;;;;5001691;28;20045;-83
2022/05/28 07:05:28;;;;;;;15.35;2.80;;;12.20;99.90;;;;;;5003703;28;20124;-83
2022/05/28 07:07:55;;;;;;;9.45;2.03;;;12.40;99.90;;;;;;4999181;28;20053;-84
2022/05/28 07:10:21;;;;;;;9.30;1.83;;;12.40;99.90;;;;;;4998420;28;20803;-84
2022/05/28 07:12:46;;;;;;;13.02;2.25;;;12.70;99.90;;;;;;5001337;28;20512;-82
2022/05/28 07:15:13;;;;;;;9.13;1.60;;;12.90;99.90;;;;;;4991061;28;20132;-81
2022/05/28 07:17:40;;;;;;;9.10;2.67;;;12.90;99.90;;;;;;5043911;28;20483;-82
2022/05/28 07:20:06;;;;;;;9.88;1.60;;;12.90;99.90;;;;;;5045280;28;20111;-82
2022/05/28 07:22:32;;;;;;;7.28;1.77;;;12.80;99.90;;;;;;5046711;28;20046;-82
2022/05/28 07:24:58;;;;;;;7.45;1.98;;;12.70;99.90;;;;;;5000395;28;20105;-85
2022/05/28 07:27:25;;;;;;;7.15;1.70;;;12.70;99.90;;;;;;5012588;28;20091;-82
2022/05/28 07:29:53;;;;;;;8.00;2.30;;;12.70;99.90;;;;;;5012675;28;20037;-83
2022/05/28 07:32:19;;;;;;;9.70;2.10;;;12.80;99.90;;;;;;5039795;28;20190;-85
2022/05/28 07:34:45;;;;;;;12.75;2.97;;;12.90;99.90;;;;;;5011499;28;20430;-83
2022/05/28 07:37:10;;;;;;;7.93;2.30;;;13.00;99.90;;;;;;5010622;28;20045;-83
2022/05/28 07:39:36;;;;;;;6.95;1.50;;;13.00;99.90;;;;;;5025543;28;20049;-83
2022/05/28 07:42:04;;;;;;;8.85;1.85;;;12.90;99.90;;;;;;4995355;28;20042;-86
2022/05/28 07:44:30;;;;;;;8.70;2.05;;;12.90;99.90;;;;;;5025078;28;20136;-84
2022/05/28 07:46:57;;;;;;;12.82;2.00;;;13.10;99.90;;;;;;5009797;28;20042;-85
2022/05/28 07:49:22;;;;;;;13.43;2.60;;;13.30;99.90;;;;;;4990978;28;20119;-86
2022/05/28 07:51:48;;;;;;;7.82;2.05;;;13.50;99.90;;;;;;5005302;28;20953;-86
2022/05/28 07:54:16;;;;;;;13.00;2.78;;;13.80;99.90;;;;;;4991652;28;20056;-87
2022/05/28 07:56:44;;;;;;;10.55;3.08;;;14.50;99.90;;;;;;5025866;28;20092;-86
2022/05/28 07:59:23;;;;;;;12.15;2.10;;;15.20;99.90;;;;;;4999225;28;20048;-86
2022/05/28 08:01:54;;;;;;;15.77;2.75;;;15.70;99.90;;;;;;5009559;28;20988;-85
2022/05/28 08:04:25;;;;;;;11.10;2.20;;;16.10;98.20;;;;;;5010992;28;20567;-86
2022/05/28 08:06:56;;;;;;;15.43;2.67;;;15.70;95.70;;;;;;4988388;28;20495;-88
2022/05/28 08:09:26;;;;;;;14.90;2.70;;;15.30;96.40;;;;;;4984568;28;20044;-86
2022/05/28 08:12:06;;;;;;;16.48;3.15;;;14.90;97.00;;;;;;5024136;28;20042;-84
2022/05/28 08:14:45;;;;;;;;;;;;;;;;;;;;;
2022/05/28 08:17:15;;;;;;;17.33;2.72;;;14.50;98.90;;;;;;5027810;28;20045;-85
2022/05/28 08:19:44;;;;;;;15.05;2.50;;;14.60;99.80;;;;;;5019735;28;20049;-84
2022/05/28 08:24:54;;;;;;;15.80;2.80;;;15.30;98.20;;;;;;5025829;28;20542;-85
2022/05/28 08:27:19;;;;;;;15.98;3.38;;;15.20;97.30;;;;;;5023092;28;20124;-84
2022/05/28 08:29:47;;;;;;;12.43;2.70;;;14.90;96.90;;;;;;4995795;28;20044;-83
2022/05/28 08:32:18;;;;;;;10.43;2.80;;;14.90;98.00;;;;;;5009327;28;20038;-83
2022/05/28 08:34:46;;;;;;;12.30;3.03;;;15.00;98.10;;;;;;5032627;28;20498;-83
2022/05/28 08:37:12;;;;;;;11.75;2.42;;;14.90;98.30;;;;;;5025786;28;20037;-83
2022/05/28 08:39:41;;;;;;;14.57;2.80;;;14.90;99.40;;;;;;4991619;28;20049;-83
2022/05/28 08:42:11;;;;;;;15.10;3.25;;;14.80;99.20;;;;;;5012772;28;20531;-85
2022/05/28 08:44:39;;;;;;;13.60;2.58;;;14.40;99.90;;;;;;5031298;28;20259;-84
2022/05/28 08:47:32;;;;;;;10.00;3.40;;;13.80;99.90;;;;;;5038751;28;20083;-84
2022/05/28 08:49:58;;;;;;;15.18;2.60;;;13.50;99.90;;;;;;5023691;28;20057;-85
2022/05/28 08:52:53;;;;;;;20.38;3.67;;;13.50;99.90;;;;;;5026751;28;20057;-84
2022/05/28 08:55:23;;;;;;;24.30;4.82;;;13.70;99.90;;;;;;5031036;28;20059;-84
2022/05/28 08:58:04;;;;;;;19.00;3.20;;;14.20;99.90;;;;;;5014051;28;20045;-84
2022/05/28 09:00:44;;;;;;;15.38;3.55;;;15.00;99.90;;;;;;5041347;28;20096;-83
2022/05/28 09:03:18;;;;;;;18.08;3.30;;;15.80;99.90;;;;;;4997528;28;20077;-83
2022/05/28 09:05:55;;;;;;;12.48;3.63;;;15.70;99.90;;;;;;5015162;28;20665;-83
2022/05/28 09:08:33;;;;;;;13.30;3.97;;;16.10;97.10;;;;;;5027507;28;20050;-82
2022/05/28 09:11:06;;;;;;;12.52;3.13;;;17.00;84.80;;;;;;5027718;28;20426;-83
2022/05/28 09:13:44;;;;;;;9.88;2.42;;;17.90;74.60;;;;;;5036599;28;20045;-83
2022/05/28 09:16:26;;;;;;;13.93;4.07;;;18.40;63.60;;;;;;5032281;28;20068;-87
2022/05/28 09:18:54;;;;;;;16.27;3.67;;;19.00;67.80;;;;;;5022501;28;20194;-84
2022/05/28 09:21:21;;;;;;;11.07;2.63;;;20.00;64.30;;;;;;5025273;28;20134;-86
2022/05/28 09:24:01;;;;;;;11.73;2.97;;;20.40;57.40;;;;;;5013539;28;20057;-84
2022/05/28 09:26:58;;;;;;;9.43;2.08;;;20.30;49.50;;;;;;5007349;28;20045;-85
2022/05/28 09:29:48;;;;;;;9.13;2.28;;;19.50;50.60;;;;;;5011207;28;20045;-85
2022/05/28 09:32:17;;;;;;;10.15;2.25;;;17.90;52.30;;;;;;5012156;28;20053;-86
2022/05/28 09:34:58;;;;;;;12.13;2.50;;;16.80;59.00;;;;;;5013459;28;20048;-83
2022/05/28 09:37:23;;;;;;;20.83;5.78;;;16.20;61.90;;;;;;5030731;28;20132;-83
2022/05/28 09:40:04;;;;;;;12.05;2.35;;;15.80;65.90;;;;;;5030439;28;20128;-89
2022/05/28 09:42:42;;;;;;;15.73;4.00;;;15.80;66.20;;;;;;5011145;28;20045;-85
2022/05/28 09:45:25;;;;;;;14.48;2.97;;;16.00;66.90;;;;;;5014937;28;20064;-84
2022/05/28 09:47:52;;;;;;;8.52;2.35;;;16.20;66.30;;;;;;5014212;28;20077;-86
2022/05/28 09:50:26;;;;;;;10.55;2.28;;;16.10;67.40;;;;;;5029396;28;20046;-90
2022/05/28 09:55:58;;;;;;;9.50;2.58;;;16.10;61.30;;;;;;5021778;28;20053;-86
2022/05/28 09:58:29;;;;;;;10.55;2.92;;;16.20;63.50;;;;;;5033311;28;20053;-85
2022/05/28 10:01:12;;;;;;;17.67;3.95;;;16.40;63.20;;;;;;5027278;28;20440;-85
2022/05/28 10:06:27;;;;;;;10.98;3.28;;;16.90;63.20;;;;;;5026128;28;20044;-84
2022/05/28 10:08:53;;;;;;;14.55;3.50;;;17.00;63.40;;;;;;5010653;28;20136;-82
2022/05/28 10:11:22;;;;;;;10.27;3.42;;;17.80;63.00;;;;;;5013023;28;20099;-88
2022/05/28 10:13:51;;;;;;;17.05;10.35;;;18.50;60.10;;;;;;4997876;28;20037;-85
2022/05/28 10:16:21;;;;;;;14.40;3.83;;;18.10;58.90;;;;;;5026236;28;20050;-83
2022/05/28 10:18:58;;;;;;;14.02;3.05;;;17.40;60.50;;;;;;5046749;28;20049;-82
2022/05/28 10:21:32;;;;;;;15.20;2.58;;;16.70;60.80;;;;;;5015026;28;20491;-83
2022/05/28 10:24:03;;;;;;;10.25;2.00;;;15.80;64.10;;;;;;5031771;28;20049;-82
2022/05/28 10:26:38;;;;;;;11.10;2.17;;;15.40;66.80;;;;;;5026241;28;20119;-84
2022/05/28 10:29:16;;;;;;;11.90;2.30;;;15.30;67.80;;;;;;5009309;28;20049;-83
2022/05/28 10:31:46;;;;;;;9.82;2.30;;;15.40;68.30;;;;;;5026100;28;20125;-83
2022/05/28 10:34:28;;;;;;;12.60;3.55;;;15.70;67.70;;;;;;5026452;28;20068;-83
2022/05/28 10:37:06;;;;;;;10.65;2.53;;;16.40;63.70;;;;;;5024280;28;20057;-85
2022/05/28 10:39:32;;;;;;;13.48;2.13;;;16.80;63.30;;;;;;5027540;28;20041;-85
2022/05/28 10:41:57;;;;;;;13.85;2.80;;;16.80;63.20;;;;;;5029625;28;20048;-83
2022/05/28 10:44:24;;;;;;;9.18;2.08;;;17.10;63.70;;;;;;4996859;28;20085;-87
2022/05/28 10:47:10;;;;;;;9.93;1.80;;;17.90;60.90;;;;;;4987762;28;20049;-84
2022/05/28 10:49:36;;;;;;;;;;;18.40;59.30;;;;;;5028512;28;20045;-83
2022/05/28 10:52:08;;;;;;;8.07;1.70;;;19.30;53.10;;;;;;5044747;28;19921;-82
2022/05/28 10:54:54;;;;;;;10.95;1.77;;;20.10;53.10;;;;;;5025916;28;20049;-83
2022/05/28 10:57:38;;;;;;;5.90;1.70;;;20.40;50.60;;;;;;5042301;28;20042;-83
2022/05/28 11:00:12;;;;;;;8.40;1.65;;;20.70;53.20;;;;;;5027263;28;20057;-82
2022/05/28 11:03:00;;;;;;;9.07;1.70;;;21.40;50.80;;;;;;5012277;28;20038;-83
2022/05/28 11:05:40;;;;;;;8.15;1.73;;;22.30;43.30;;;;;;5013752;28;20045;-88
2022/05/28 11:08:38;;;;;;;6.85;1.67;;;22.40;46.20;;;;;;5037223;28;20037;-83
2022/05/28 11:11:18;;;;;;;8.05;1.45;;;22.80;43.30;;;;;;5006128;28;20487;-83
2022/05/28 11:14:08;;;;;;;7.20;1.40;;;22.60;39.60;;;;;;5046122;28;20096;-83
2022/05/28 11:16:56;;;;;;;10.00;2.42;;;22.60;39.20;;;;;;5022847;28;20076;-83
2022/05/28 11:19:44;;;;;;;8.40;3.05;;;21.70;41.80;;;;;;5007159;28;20038;-82
2022/05/28 11:22:47;;;;;;;13.13;1.90;;;20.30;43.00;;;;;;5049980;28;20075;-84
2022/05/28 11:25:19;;;;;;;7.80;1.48;;;18.80;44.70;;;;;;5018997;28;20033;-85
2022/05/28 11:28:04;;;;;;;8.13;2.80;;;18.00;46.70;;;;;;5027919;28;20042;-86
2022/05/28 11:30:33;;;;;;;9.85;1.83;;;18.10;47.90;;;;;;5023171;28;20041;-86
2022/05/28 11:33:26;;;;;;;10.02;3.05;;;19.90;46.70;;;;;;5025574;28;20053;-87
2022/05/28 11:36:03;;;;;;;6.15;1.38;;;21.40;42.50;;;;;;5013482;28;20045;-86
2022/05/28 11:38:34;;;;;;;10.30;2.47;;;21.40;41.20;;;;;;5023313;28;20072;-88
2022/05/28 11:41:19;;;;;;;10.25;1.98;;;20.30;42.20;;;;;;5013976;28;20060;-85
2022/05/28 11:44:03;;;;;;;12.85;3.67;;;18.90;45.10;;;;;;5027515;28;20045;-87
2022/05/28 11:46:42;;;;;;;11.00;4.35;;;17.70;48.70;;;;;;5021189;28;20049;-89
2022/05/28 11:52:21;;;;;;;8.90;2.00;;;17.40;52.90;;;;;;5017014;28;20625;-87
2022/05/28 11:55:13;;;;;;;6.47;1.50;;;19.60;50.10;;;;;;4998452;28;20091;-88
2022/05/28 11:57:59;;;;;;;10.70;1.50;;;21.40;45.50;;;;;;5027947;28;20065;-89
2022/05/28 12:00:26;;;;;;;9.05;1.90;;;22.00;41.30;;;;;;5048494;28;21715;-88
2022/05/28 12:02:57;;;;;;;12.52;2.10;;;21.10;42.80;;;;;;5017815;28;20065;-87
2022/05/28 12:05:39;;;;;;;13.40;2.55;;;19.80;45.50;;;;;;5026552;28;20041;-87
2022/05/28 12:08:06;;;;;;;8.13;1.88;;;17.80;68.70;;;;;;5007090;28;20060;-88
2022/05/28 12:10:38;;;;;;;15.07;2.63;;;15.60;75.20;;;;;;5017456;28;20117;-89
2022/05/28 12:13:05;;;;;;;8.80;2.53;;;14.20;99.90;;;;;;5004556;28;20057;-88
2022/05/28 12:15:36;;;;;;;11.63;3.72;;;13.40;99.90;;;;;;5029000;28;20045;-89
2022/05/28 12:18:21;;;;;;;14.32;4.40;;;12.80;99.90;;;;;;5016962;28;20044;-89
2022/05/28 12:21:00;;;;;;;9.23;1.77;;;12.50;99.90;;;;;;5061357;28;20033;-88
2022/05/28 12:23:42;;;;;;;11.27;2.78;;;12.90;99.90;;;;;;5016545;28;20494;-89
2022/05/28 12:29:38;;;;;;;11.52;2.53;;;13.90;99.90;;;;;;5016705;28;20144;-86
2022/05/28 12:32:14;;;;;;;10.15;2.40;;;14.40;99.90;;;;;;5021737;28;20578;-89
2022/05/28 12:35:00;;;;;;;8.32;1.45;;;16.50;99.90;;;;;;5036320;28;20041;-86
2022/05/28 12:37:35;;;;;;;8.95;1.77;;;17.60;88.80;;;;;;5030320;28;20049;-84
2022/05/28 12:40:21;;;;;;;10.25;2.13;;;17.70;80.20;;;;;;5012411;28;20150;-85
2022/05/28 12:42:47;;;;;;;;;;;17.20;74.00;;;;;;5030435;28;20052;-85
2022/05/28 12:45:35;;;;;;;8.93;1.50;;;16.20;69.60;;;;;;5009158;28;19925;-89
2022/05/28 12:48:24;;;;;;;8.23;1.52;;;15.60;78.00;;;;;;5029235;28;20048;-86
2022/05/28 12:51:20;;;;;;;10.05;1.95;;;15.20;78.40;;;;;;5023758;28;20045;-86
2022/05/28 12:53:49;;;;;;;10.48;2.33;;;14.80;78.30;;;;;;5025089;28;20487;-87
2022/05/28 12:56:42;;;;;;;10.13;2.42;;;14.80;79.40;;;;;;5029129;28;20128;-88
2022/05/28 12:59:17;;;;;;;10.65;2.08;;;14.90;75.60;;;;;;5029028;28;20872;-85
2022/05/28 13:01:59;;;;;;;13.50;2.70;;;15.10;74.10;;;;;;5042474;28;20053;-86
2022/05/28 13:04:30;;;;;;;10.30;2.10;;;15.60;72.30;;;;;;5030100;28;20507;-87
2022/05/28 13:06:58;;;;;;;12.77;2.60;;;16.00;69.90;;;;;;5023527;28;20037;-85
2022/05/28 13:09:27;;;;;;;12.88;2.03;;;16.00;67.50;;;;;;5031487;28;20510;-84
2022/05/28 13:12:11;;;;;;;10.20;2.30;;;16.30;68.30;;;;;;5013546;28;20526;-87
2022/05/28 13:14:43;;;;;;;11.10;1.75;;;17.30;61.70;;;;;;5047675;28;20052;-84
2022/05/28 13:17:46;;;;;;;10.38;1.92;;;18.40;59.60;;;;;;5030316;28;20057;-87
2022/05/28 13:21:09;;;;;;;6.97;1.52;;;19.30;55.90;;;;;;5007428;28;20049;-87
2022/05/28 13:23:37;;;;;;;9.20;1.90;;;20.30;46.80;;;;;;4940501;28;20050;-84
2022/05/28 13:26:09;;;;;;;9.02;2.10;;;20.10;50.00;;;;;;4949487;28;20099;-86